Terminal Aerodrome Forecast
Issued by NWS Sioux Falls, SD

Home | Current Version | Previous Version | Text Only | Print | Product List | Glossary On
Versions: 1 2 3 4 5 6 7 8 9 10 11 12 13 14 15 16 17 18 19 20 21 22 23 24 25 26 27 28 29 30
000
FTUS43 KFSD 152038 AAA
TAFFSD
TAF AMD
KFSD 152038Z 1521/1618 30014G22KT P6SM SCT050 BKN200
     FM152135 04012KT P6SM BKN050
     FM152300 04007KT P6SM BKN050
      TEMPO 1523/1601 6SM -TSRA BKN045CB
     FM160200 32010KT P6SM BKN090
     FM161200 32005KT P6SM SCT025=

USA.gov is the U.S. government's official web portal to all federal, state and local government web resources and services.